createdAt,value
2023-02-18T00:03:43.063Z,8.31
2023-02-18T00:07:45.195Z,7.93
2023-02-18T00:11:47.991Z,8.05
2023-02-18T00:15:50.262Z,7.89
2023-02-18T00:19:52.113Z,7.81
2023-02-18T00:23:55.157Z,7.95
2023-02-18T00:27:57.310Z,7.78
2023-02-18T00:31:59.366Z,7.69
2023-02-18T00:36:06.269Z,7.64
2023-02-18T00:40:08.877Z,7.52
2023-02-18T00:44:11.768Z,7.49
2023-02-18T00:48:13.845Z,7.60
2023-02-18T00:52:16.824Z,7.63
2023-02-18T00:56:19.745Z,7.60
2023-02-18T01:00:22.138Z,7.26
2023-02-18T01:04:24.381Z,7.38
2023-02-18T01:08:26.599Z,7.33
2023-02-18T01:12:28.628Z,7.27
2023-02-18T01:16:30.938Z,7.08
2023-02-18T01:20:33.597Z,7.46
2023-02-18T01:24:36.346Z,7.16
2023-02-18T01:28:40.694Z,7.09
2023-02-18T01:32:43.525Z,7.26
2023-02-18T01:36:45.580Z,6.95
2023-02-18T01:40:51.542Z,7.11
2023-02-18T01:44:54.533Z,7.04
2023-02-18T01:49:01.734Z,6.94
2023-02-18T01:53:04.263Z,6.82
2023-02-18T01:57:10.786Z,6.88
2023-02-18T02:01:13.263Z,6.95
2023-02-18T02:05:17.153Z,6.91
2023-02-18T02:09:22.763Z,6.89
2023-02-18T02:13:50.960Z,6.87
2023-02-18T02:18:17.590Z,6.91
2023-02-18T02:22:39.625Z,6.79
2023-02-18T02:27:18.070Z,6.86
2023-02-18T02:31:35.319Z,6.66
2023-02-18T02:36:04.807Z,6.62
2023-02-18T02:40:14.282Z,6.74
2023-02-18T02:44:22.457Z,6.64
2023-02-18T02:48:49.632Z,6.60
2023-02-18T02:53:02.474Z,6.63
2023-02-18T02:57:09.256Z,6.60
2023-02-18T03:01:36.800Z,6.60
2023-02-18T03:06:17.438Z,6.39
2023-02-18T03:10:36.691Z,6.61
2023-02-18T03:15:01.111Z,6.67
2023-02-18T03:19:18.756Z,6.52
2023-02-18T03:23:27.665Z,6.33
2023-02-18T03:27:33.617Z,6.52
2023-02-18T03:31:38.536Z,6.37
2023-02-18T03:35:42.342Z,6.42
2023-02-18T03:39:49.555Z,6.20
2023-02-18T03:43:52.939Z,6.16
2023-02-18T03:47:56.513Z,6.13
2023-02-18T03:51:59.595Z,6.22
2023-02-18T03:56:01.679Z,6.16
2023-02-18T04:00:06.735Z,6.27
2023-02-18T04:04:15.152Z,6.28
2023-02-18T04:08:17.211Z,6.22
2023-02-18T04:12:19.356Z,6.25
2023-02-18T04:16:21.777Z,6.03
2023-02-18T04:20:24.151Z,6.04
2023-02-18T04:24:26.301Z,5.93
2023-02-18T04:28:28.025Z,6.02
2023-02-18T04:32:30.209Z,5.98
2023-02-18T04:36:32.509Z,5.90
2023-02-18T04:40:35.342Z,5.86
2023-02-18T04:44:38.089Z,5.77
2023-02-18T04:48:40.492Z,5.83
2023-02-18T04:52:42.233Z,5.81
2023-02-18T04:56:44.219Z,6.02
2023-02-18T05:00:46.794Z,6.04
2023-02-18T05:04:48.983Z,5.94
2023-02-18T05:08:51.002Z,5.96
2023-02-18T05:12:53.227Z,5.76
2023-02-18T05:16:55.522Z,5.98
2023-02-18T05:20:57.687Z,5.87
2023-02-18T05:24:59.874Z,5.88
2023-02-18T05:29:01.996Z,6.06
2023-02-18T05:33:04.061Z,5.89
2023-02-18T05:37:06.337Z,5.75
2023-02-18T05:41:08.560Z,5.87
2023-02-18T05:45:10.997Z,5.85
2023-02-18T05:49:13.140Z,5.86
2023-02-18T05:53:17.371Z,5.74
2023-02-18T05:57:19.721Z,5.87
2023-02-18T06:01:21.921Z,5.92
2023-02-18T06:05:25.587Z,5.94
2023-02-18T06:09:27.786Z,5.91
2023-02-18T06:13:29.895Z,5.85
2023-02-18T06:17:32.058Z,5.75
2023-02-18T06:21:34.381Z,5.89
2023-02-18T06:25:36.799Z,5.92
2023-02-18T06:29:38.976Z,5.91
2023-02-18T06:33:41.201Z,5.95
2023-02-18T06:37:44.484Z,5.94
2023-02-18T06:41:46.572Z,5.85
2023-02-18T06:45:48.650Z,5.96
2023-02-18T06:49:51.131Z,5.95
2023-02-18T06:53:53.171Z,5.78
2023-02-18T06:57:55.278Z,5.83
2023-02-18T07:01:57.247Z,5.82
2023-02-18T07:05:59.995Z,5.86
2023-02-18T07:10:02.389Z,5.85
2023-02-18T07:14:06.361Z,5.83
2023-02-18T07:18:09.626Z,5.92
2023-02-18T07:22:11.581Z,5.88
2023-02-18T07:26:14.790Z,5.98
2023-02-18T07:30:17.229Z,5.94
2023-02-18T07:34:19.236Z,5.93
2023-02-18T07:38:22.042Z,6.04
2023-02-18T07:42:24.839Z,6.04
2023-02-18T07:46:27.203Z,6.09
2023-02-18T07:50:29.387Z,6.06
2023-02-18T07:54:31.620Z,6.18
2023-02-18T07:58:36.800Z,6.21
2023-02-18T08:02:38.809Z,6.06
2023-02-18T08:06:46.081Z,6.19
2023-02-18T08:10:49.034Z,6.08
2023-02-18T08:14:51.239Z,6.15
2023-02-18T08:18:53.745Z,6.29
2023-02-18T08:22:55.937Z,6.19
2023-02-18T08:27:01.268Z,6.38
2023-02-18T08:31:04.392Z,6.34
2023-02-18T08:35:07.852Z,6.53
2023-02-18T08:39:10.159Z,6.65
2023-02-18T08:43:12.990Z,6.61
2023-02-18T08:48:18.330Z,6.75
2023-02-18T08:51:38.057Z,6.76
2023-02-18T08:55:40.981Z,6.61
2023-02-18T08:59:43.247Z,6.55
2023-02-18T09:03:45.442Z,6.78
2023-02-18T09:07:47.545Z,7.04
2023-02-18T09:11:49.964Z,6.80
2023-02-18T09:16:04.397Z,7.13
2023-02-18T09:20:07.285Z,7.35
2023-02-18T09:24:09.931Z,7.35
2023-02-18T09:28:12.089Z,7.24
2023-02-18T09:32:20.013Z,6.95
2023-02-18T09:36:28.550Z,7.09
2023-02-18T09:40:35.567Z,7.00
2023-02-18T09:44:54.380Z,7.19
2023-02-18T09:48:57.413Z,7.30
2023-02-18T09:53:02.356Z,7.03
2023-02-18T09:57:07.453Z,7.05
2023-02-18T10:01:31.660Z,7.12
2023-02-18T10:05:37.213Z,6.78
2023-02-18T10:09:42.111Z,6.92
2023-02-18T10:13:45.093Z,6.96
2023-02-18T10:17:48.465Z,6.86
2023-02-18T10:21:52.704Z,7.10
2023-02-18T10:25:57.300Z,7.24
2023-02-18T10:30:33.423Z,7.31
2023-02-18T10:34:43.972Z,7.40
2023-02-18T10:39:07.805Z,7.51
2023-02-18T10:43:26.800Z,7.69
2023-02-18T10:47:38.501Z,7.86
2023-02-18T10:51:47.847Z,7.73
2023-02-18T10:55:50.024Z,7.65
2023-02-18T11:00:17.080Z,7.44
2023-02-18T11:04:23.746Z,7.43
2023-02-18T11:08:29.042Z,7.48
2023-02-18T11:12:45.966Z,7.40
2023-02-18T11:16:53.564Z,7.32
2023-02-18T11:20:59.349Z,7.27
2023-02-18T11:25:04.258Z,7.18
2023-02-18T11:29:14.628Z,7.22
2023-02-18T11:33:40.040Z,7.18
2023-02-18T11:37:42.404Z,7.31
2023-02-18T11:41:48.667Z,7.26
2023-02-18T11:46:09.151Z,7.31
2023-02-18T11:50:21.049Z,7.66
2023-02-18T11:54:30.180Z,7.57
2023-02-18T11:58:44.118Z,7.59
2023-02-18T12:02:47.786Z,7.50
2023-02-18T12:06:55.193Z,7.63
2023-02-18T12:11:04.092Z,7.63
2023-02-18T12:15:06.397Z,7.55
2023-02-18T12:19:21.285Z,7.66
2023-02-18T12:23:35.027Z,7.67
2023-02-18T12:27:57.073Z,7.73
2023-02-18T12:32:17.944Z,7.62
2023-02-18T12:36:46.420Z,7.77
2023-02-18T12:41:00.683Z,7.65
2023-02-18T12:45:30.734Z,7.52
2023-02-18T12:50:02.089Z,7.68
2023-02-18T12:54:31.808Z,7.78
2023-02-18T12:58:55.807Z,7.86
2023-02-18T13:03:16.227Z,8.08
2023-02-18T13:07:35.063Z,7.74
2023-02-18T13:12:00.521Z,7.65
2023-02-18T13:16:11.871Z,7.64
2023-02-18T13:20:21.575Z,7.52
2023-02-18T13:24:30.793Z,7.41
2023-02-18T13:28:46.767Z,7.42
2023-02-18T13:33:01.495Z,7.22
2023-02-18T13:37:46.395Z,7.30
2023-02-18T13:41:50.064Z,7.13
2023-02-18T13:46:07.343Z,6.98
2023-02-18T13:50:25.669Z,7.08
2023-02-18T13:54:46.449Z,7.07
2023-02-18T13:58:55.414Z,7.13
2023-02-18T14:03:18.796Z,7.28
2023-02-18T14:07:36.209Z,7.25
2023-02-18T14:11:41.725Z,7.21
2023-02-18T14:15:56.404Z,7.12
2023-02-18T14:20:01.406Z,7.02
2023-02-18T14:24:07.058Z,7.06
2023-02-18T14:28:34.006Z,7.01
2023-02-18T14:32:39.945Z,7.01
2023-02-18T14:37:01.066Z,6.93
2023-02-18T14:41:25.564Z,6.98
2023-02-18T14:46:05.486Z,7.07
2023-02-18T14:50:14.369Z,6.64
2023-02-18T14:54:19.429Z,6.85
2023-02-18T14:58:36.237Z,6.96
2023-02-18T15:02:38.883Z,6.87
2023-02-18T15:06:41.083Z,6.66
2023-02-18T15:10:54.075Z,6.23
2023-02-18T15:15:02.442Z,6.19
2023-02-18T15:19:14.761Z,5.75
2023-02-18T15:23:17.959Z,5.08
2023-02-18T15:27:23.493Z,5.03
2023-02-18T15:31:27.881Z,4.82
2023-02-18T15:35:33.158Z,4.91
2023-02-18T15:39:38.515Z,4.84
2023-02-18T15:43:53.079Z,4.78
2023-02-18T15:47:57.320Z,4.43
2023-02-18T15:52:02.221Z,4.23
2023-02-18T15:56:10.099Z,4.22
2023-02-18T16:00:32.097Z,4.22
2023-02-18T16:04:38.582Z,4.18
2023-02-18T16:08:43.491Z,4.25
2023-02-18T16:12:50.241Z,4.27
2023-02-18T16:17:09.711Z,4.21
2023-02-18T16:21:17.922Z,4.20
2023-02-18T16:25:38.629Z,4.17
2023-02-18T16:29:41.943Z,4.19
2023-02-18T16:33:43.928Z,4.07
2023-02-18T16:37:47.952Z,4.03
2023-02-18T16:41:50.009Z,4.04
2023-02-18T16:45:55.937Z,4.02
2023-02-18T16:49:58.844Z,4.04
2023-02-18T16:54:01.125Z,4.04
2023-02-18T16:58:03.145Z,4.00
2023-02-18T17:02:13.171Z,4.12
2023-02-18T17:06:15.780Z,4.10
2023-02-18T17:10:18.062Z,4.12
2023-02-18T17:14:23.335Z,4.04
2023-02-18T17:18:26.340Z,4.13
2023-02-18T17:22:28.394Z,4.13
2023-02-18T17:26:31.099Z,4.08
2023-02-18T17:30:37.339Z,4.25
2023-02-18T17:34:41.000Z,4.30
2023-02-18T17:38:43.110Z,4.12
2023-02-18T17:42:45.140Z,4.05
2023-02-18T17:46:49.740Z,4.24
2023-02-18T17:50:52.251Z,4.26
2023-02-18T17:54:54.270Z,4.23
2023-02-18T17:58:56.246Z,4.26
2023-02-18T18:02:59.100Z,4.22
2023-02-18T18:07:01.092Z,4.22
2023-02-18T18:11:03.750Z,4.30
2023-02-18T18:15:21.132Z,4.30
2023-02-18T18:19:23.253Z,4.14
2023-02-18T18:23:25.367Z,4.20
2023-02-18T18:27:27.483Z,4.17
2023-02-18T18:31:29.774Z,4.17
2023-02-18T18:35:35.042Z,4.01
2023-02-18T18:39:37.131Z,4.14
2023-02-18T18:43:40.300Z,4.03
2023-02-18T18:47:42.162Z,4.08
2023-02-18T18:51:44.195Z,3.93
2023-02-18T18:55:47.121Z,3.84
2023-02-18T18:59:48.866Z,3.73
2023-02-18T19:03:51.098Z,3.85
2023-02-18T19:07:53.824Z,3.87
2023-02-18T19:11:55.737Z,3.73
2023-02-18T19:16:08.610Z,3.91
2023-02-18T19:20:14.171Z,3.82
2023-02-18T19:24:16.195Z,3.84
2023-02-18T19:28:20.501Z,3.81
2023-02-18T19:32:22.880Z,3.83
2023-02-18T19:36:24.806Z,3.88
2023-02-18T19:40:29.919Z,3.75
2023-02-18T19:44:34.006Z,3.82
2023-02-18T19:48:36.152Z,3.73
2023-02-18T19:52:38.244Z,3.74
2023-02-18T19:56:40.513Z,3.75
2023-02-18T20:00:43.650Z,3.86
2023-02-18T20:04:46.395Z,3.92
2023-02-18T20:08:48.599Z,3.89
2023-02-18T20:12:52.976Z,3.91
2023-02-18T20:16:56.070Z,4.03
2023-02-18T20:20:58.440Z,3.99
2023-02-18T20:25:00.431Z,4.10
2023-02-18T20:29:02.521Z,4.04
2023-02-18T20:33:05.675Z,3.98
2023-02-18T20:37:07.796Z,4.07
2023-02-18T20:41:14.272Z,4.16
2023-02-18T20:45:16.534Z,4.15
2023-02-18T20:49:20.672Z,4.21
2023-02-18T20:53:22.746Z,4.21
2023-02-18T20:57:25.043Z,4.09
2023-02-18T21:01:27.075Z,4.11
2023-02-18T21:05:29.021Z,4.12
2023-02-18T21:09:31.441Z,4.12
2023-02-18T21:13:34.320Z,4.25
2023-02-18T21:17:36.329Z,4.21
2023-02-18T21:21:38.431Z,4.13
2023-02-18T21:25:40.644Z,4.10
2023-02-18T21:29:42.588Z,4.10
2023-02-18T21:33:44.791Z,4.23
2023-02-18T21:37:46.446Z,4.32
2023-02-18T21:41:48.441Z,4.19
2023-02-18T21:45:50.404Z,4.13
2023-02-18T21:49:52.290Z,3.93
2023-02-18T21:53:54.295Z,3.82
2023-02-18T21:57:56.033Z,3.64
2023-02-18T22:02:01.476Z,3.50
2023-02-18T22:06:03.682Z,3.50
2023-02-18T22:10:06.092Z,3.34
2023-02-18T22:14:09.247Z,3.41
2023-02-18T22:18:10.932Z,3.21
2023-02-18T22:22:12.891Z,3.31
2023-02-18T22:26:15.148Z,3.28
2023-02-18T22:30:18.845Z,3.32
2023-02-18T22:34:22.314Z,3.28
2023-02-18T22:38:24.464Z,3.30
2023-02-18T22:42:26.363Z,3.27
2023-02-18T22:46:30.503Z,3.28
2023-02-18T22:50:34.080Z,3.28
2023-02-18T22:54:36.109Z,3.17
2023-02-18T22:58:38.943Z,3.39
2023-02-18T23:02:40.763Z,3.21
2023-02-18T23:06:45.686Z,3.22
2023-02-18T23:10:48.069Z,3.26
2023-02-18T23:14:50.049Z,3.28
2023-02-18T23:18:51.997Z,3.27
2023-02-18T23:22:53.696Z,3.15
2023-02-18T23:26:55.785Z,3.16
2023-02-18T23:30:57.768Z,3.40
2023-02-18T23:34:59.860Z,3.20
2023-02-18T23:39:04.930Z,3.35
2023-02-18T23:43:06.589Z,3.22
2023-02-18T23:47:08.583Z,3.32
2023-02-18T23:51:13.583Z,3.16
2023-02-18T23:55:15.677Z,3.31
2023-02-18T23:59:17.759Z,3.21
